Terminal Aerodrome Forecast
Issued by NWS

Home | Current Version | Previous Version | Text Only | Print | Product List | Glossary On
Versions: 1 2 3 4 5 6 7 8 9 10 11 12 13 14 15 16 17 18 19 20 21 22
000
FTUS43 KSGF 230500
TAFJLN
TAF
KJLN 230537Z 2306/2406 16011KT P6SM BKN200 WS020/19045KT
     FM230900 16011KT P6SM VCSH BKN025 OVC200 WS020/19045KT
     FM231100 15011KT 5SM -RA BR VCTS OVC015CB
      TEMPO 2312/2316 3SM RA BR BKN008 OVC015
     FM231600 19011KT 5SM -DZ OVC012
     FM232200 22011KT 5SM -RA BR VCTS OVC015CB
     FM240100 29020G31KT 5SM -RA BR OVC010
     FM240400 29022G33KT 3SM -RASN OVC010=

USA.gov is the U.S. government's official web portal to all federal, state and local government web resources and services.